Time;durP1;ratioP1;P1;durP2;ratioP2;P2;SDS_P1;SDS_P2;PMS_P1;PMS_P2;Temp;Humidity;BMP_temperature;BMP_pressure;BME280_temperature;BME280_humidity;BME280_pressure;Samples;Min_cycle;Max_cycle;Signal;HPM_P1;HPM_P2
2020/12/22 00:01:34;;;;;;;;;;;12.00;99.90;;;;;;5115893;28;20001;-93
2020/12/22 00:04:23;;;;;;;;;;;12.00;99.90;;;;;;5109214;28;20367;-92
2020/12/22 00:07:26;;;;;;;;;;;12.10;99.90;;;;;;5122603;28;19912;-92
2020/12/22 00:10:06;;;;;;;;;;;12.10;99.90;;;;;;5139682;28;19914;-91
2020/12/22 00:12:33;;;;;;;;;;;12.10;99.90;;;;;;5123962;28;20002;-92
2020/12/22 00:15:02;;;;;;;;;;;12.10;99.90;;;;;;5123478;28;19919;-93
2020/12/22 00:17:48;;;;;;;;;;;12.20;99.90;;;;;;5115871;28;20375;-92
2020/12/22 00:20:18;;;;;;;;;;;12.20;99.90;;;;;;5115160;28;19915;-93
2020/12/22 00:22:55;;;;;;;;;;;12.30;99.90;;;;;;5114479;28;20372;-92
2020/12/22 00:25:21;;;;;;;;;;;12.30;99.90;;;;;;5108988;28;19943;-91
2020/12/22 00:27:55;;;;;;;;;;;12.30;99.90;;;;;;5114644;28;19908;-91
2020/12/22 00:30:27;;;;;;;;;;;12.30;99.90;;;;;;5116758;28;19943;-91
2020/12/22 00:32:55;;;;;;;;;;;12.40;99.90;;;;;;5120860;28;19908;-91
2020/12/22 00:35:32;;;;;;;;;;;12.40;99.90;;;;;;5117645;28;19912;-91
2020/12/22 00:38:01;;;;;;;;;;;12.40;99.90;;;;;;5110105;28;19915;-91
2020/12/22 00:40:45;;;;;;;;;;;12.40;99.90;;;;;;5114174;28;19963;-91
2020/12/22 00:43:29;;;;;;;;;;;12.50;99.90;;;;;;5115434;28;19912;-90
2020/12/22 00:46:16;;;;;;;;;;;12.50;99.90;;;;;;5115179;28;19907;-90
2020/12/22 00:48:49;;;;;;;;;;;12.50;99.90;;;;;;5114893;28;19937;-90
2020/12/22 00:51:23;;;;;;;;;;;12.50;99.90;;;;;;5114908;28;19907;-90
2020/12/22 00:53:49;;;;;;;;;;;12.60;99.90;;;;;;5115315;28;19935;-90
2020/12/22 00:56:18;;;;;;;;;;;12.60;99.90;;;;;;5114862;28;19923;-89
2020/12/22 00:58:47;;;;;;;;;;;12.60;99.90;;;;;;5119252;28;19916;-89
2020/12/22 01:01:22;;;;;;;;;;;12.60;99.90;;;;;;5116328;28;19916;-90
2020/12/22 01:03:48;;;;;;;;;;;12.70;99.90;;;;;;5119069;28;19922;-92
2020/12/22 01:06:15;;;;;;;;;;;12.70;99.90;;;;;;5118859;28;20311;-93
2020/12/22 01:08:47;;;;;;;;;;;12.70;99.90;;;;;;5130899;28;19907;-95
2020/12/22 01:11:32;;;;;;;;;;;12.70;99.90;;;;;;5131813;28;19908;-93
2020/12/22 01:13:59;;;;;;;;;;;12.80;99.90;;;;;;5118610;28;19919;-93
2020/12/22 01:16:25;;;;;;;;;;;12.80;99.90;;;;;;5120757;28;19908;-93
2020/12/22 01:21:57;;;;;;;;;;;12.80;99.90;;;;;;5123705;28;19911;-94
2020/12/22 01:24:41;;;;;;;;;;;12.80;99.90;;;;;;5121390;28;19920;-91
2020/12/22 01:27:13;;;;;;;;;;;12.80;99.90;;;;;;5125793;28;19934;-92
2020/12/22 01:29:44;;;;;;;;;;;12.90;99.90;;;;;;5128493;28;19908;-92
2020/12/22 01:32:15;;;;;;;;;;;12.90;99.90;;;;;;5119086;28;20007;-94
2020/12/22 01:34:47;;;;;;;;;;;12.90;99.90;;;;;;5119344;28;19908;-94
2020/12/22 01:37:20;;;;;;;;;;;12.90;99.90;;;;;;5102395;28;19916;-93
2020/12/22 01:39:48;;;;;;;;;;;12.90;99.90;;;;;;5117739;28;20372;-91
2020/12/22 01:42:22;;;;;;;;;;;12.90;99.90;;;;;;5119747;28;19939;-94
2020/12/22 01:44:50;;;;;;;;;;;12.90;99.90;;;;;;5119148;28;19914;-93
2020/12/22 01:47:21;;;;;;;;;;;12.90;99.90;;;;;;5092286;28;20029;-91
2020/12/22 01:49:53;;;;;;;;;;;12.90;99.90;;;;;;5094839;28;20387;-92
2020/12/22 01:52:39;;;;;;;;;;;13.00;99.90;;;;;;5097630;28;19912;-92
2020/12/22 01:55:09;;;;;;;;;;;13.00;99.90;;;;;;5094678;28;19908;-93
2020/12/22 01:57:48;;;;;;;;;;;13.00;99.90;;;;;;5096965;28;19914;-93
2020/12/22 02:00:17;;;;;;;;;;;13.00;99.90;;;;;;5097360;28;20443;-91
2020/12/22 02:02:45;;;;;;;;;;;13.00;99.90;;;;;;5097453;28;19908;-91
2020/12/22 02:05:14;;;;;;;;;;;13.00;99.90;;;;;;5080514;28;19924;-91
2020/12/22 02:07:45;;;;;;;;;;;13.00;99.90;;;;;;5096543;28;19951;-91
2020/12/22 02:10:21;;;;;;;;;;;13.00;99.90;;;;;;5093806;28;19958;-91
2020/12/22 02:13:11;;;;;;;;;;;13.00;99.90;;;;;;5096808;28;19908;-91
2020/12/22 02:15:41;;;;;;;;;;;13.00;99.90;;;;;;5096468;28;19908;-88
2020/12/22 02:18:38;;;;;;;;;;;13.00;99.90;;;;;;5107041;28;19908;-92
2020/12/22 02:21:07;;;;;;;;;;;13.00;99.90;;;;;;5119031;28;19923;-90
2020/12/22 02:23:35;;;;;;;;;;;13.00;99.90;;;;;;5111282;28;19927;-91
2020/12/22 02:26:08;;;;;;;;;;;13.00;99.90;;;;;;5115823;28;19915;-92
2020/12/22 02:28:42;;;;;;;;;;;13.00;99.90;;;;;;5117665;28;19914;-91
2020/12/22 02:31:14;;;;;;;;;;;13.00;99.90;;;;;;5114946;28;19908;-92
2020/12/22 02:33:43;;;;;;;;;;;13.00;99.90;;;;;;5118476;28;19908;-91
2020/12/22 02:36:24;;;;;;;;;;;13.10;99.90;;;;;;5118743;28;19908;-92
2020/12/22 02:38:54;;;;;;;;;;;13.10;99.90;;;;;;5113441;28;19915;-89
2020/12/22 02:41:24;;;;;;;;;;;13.10;99.90;;;;;;5039907;28;19909;-93
2020/12/22 02:44:01;;;;;;;;;;;13.10;99.90;;;;;;5055648;28;19913;-91
2020/12/22 02:46:27;;;;;;;;;;;13.10;99.90;;;;;;5053787;28;19913;-91
2020/12/22 02:49:01;;;;;;;;;;;13.10;99.90;;;;;;5051531;28;20364;-92
2020/12/22 02:51:37;;;;;;;;;;;13.10;99.90;;;;;;5054155;28;20020;-90
2020/12/22 02:54:06;;;;;;;;;;;13.10;99.90;;;;;;5038072;28;19913;-90
2020/12/22 02:56:37;;;;;;;;;;;13.10;99.90;;;;;;5042026;28;19909;-92
2020/12/22 02:59:06;;;;;;;;;;;13.10;99.90;;;;;;5034476;28;19952;-93
2020/12/22 03:01:37;;;;;;;;;;;13.10;99.90;;;;;;5035881;28;19917;-90
2020/12/22 03:04:03;;;;;;;;;;;13.10;99.90;;;;;;4996765;28;19910;-91
2020/12/22 03:06:35;;;;;;;;;;;13.10;99.90;;;;;;4975225;28;19933;-91
2020/12/22 03:09:12;;;;;;;;;;;13.10;99.90;;;;;;4960073;28;19969;-92
2020/12/22 03:11:41;;;;;;;;;;;13.10;99.90;;;;;;4976452;28;19917;-90
2020/12/22 03:14:18;;;;;;;;;;;13.10;99.90;;;;;;4977113;28;19914;-91
2020/12/22 03:16:47;;;;;;;;;;;13.10;99.90;;;;;;4973413;28;19914;-91
2020/12/22 03:19:26;;;;;;;;;;;13.10;99.90;;;;;;4978014;28;20295;-91
2020/12/22 03:22:00;;;;;;;;;;;13.10;99.90;;;;;;4979559;28;19910;-92
2020/12/22 03:24:32;;;;;;;;;;;13.10;99.90;;;;;;4977411;28;19934;-92
2020/12/22 03:27:03;;;;;;;;;;;13.10;99.90;;;;;;4974409;28;19914;-92
2020/12/22 03:29:32;;;;;;;;;;;13.10;99.90;;;;;;4972759;28;19910;-91
2020/12/22 03:32:08;;;;;;;;;;;13.10;99.90;;;;;;4999051;28;19910;-93
2020/12/22 03:34:49;;;;;;;;;;;13.10;99.90;;;;;;5022046;28;19941;-92
2020/12/22 03:37:30;;;;;;;;;;;13.10;99.90;;;;;;5007350;28;19909;-92
2020/12/22 03:40:04;;;;;;;;;;;13.00;99.90;;;;;;5023507;28;19917;-92
2020/12/22 03:42:38;;;;;;;;;;;13.00;99.90;;;;;;5072290;28;20304;-92
2020/12/22 03:45:10;;;;;;;;;;;13.00;99.90;;;;;;5109425;27;19933;-93
2020/12/22 03:48:17;;;;;;;;;;;13.00;99.90;;;;;;5116405;27;19922;-93
2020/12/22 03:50:43;;;;;;;;;;;13.00;99.90;;;;;;5118388;27;19994;-92
2020/12/22 03:53:13;;;;;;;;;;;13.00;99.90;;;;;;5112884;27;19919;-91
2020/12/22 03:55:42;;;;;;;;;;;13.00;99.90;;;;;;5118681;27;20337;-89
2020/12/22 03:58:11;;;;;;;;;;;12.90;99.90;;;;;;5112307;27;19990;-91
2020/12/22 04:00:39;;;;;;;;;;;13.00;99.90;;;;;;5115692;27;19934;-90
2020/12/22 04:03:10;;;;;;;;;;;12.90;99.90;;;;;;5118402;27;19912;-94
2020/12/22 04:06:15;;;;;;;;;;;12.90;99.90;;;;;;5094490;28;20258;-93
2020/12/22 04:08:43;;;;;;;;;;;12.90;99.90;;;;;;5077404;28;20408;-92
2020/12/22 04:11:12;;;;;;;;;;;12.90;99.90;;;;;;5077693;28;19973;-89
2020/12/22 04:13:51;;;;;;;;;;;12.80;99.90;;;;;;5054160;28;19909;-89
2020/12/22 04:16:23;;;;;;;;;;;12.90;99.90;;;;;;5056019;28;19908;-91
2020/12/22 04:19:09;;;;;;;;;;;12.80;99.90;;;;;;5040381;28;19908;-90
2020/12/22 04:21:40;;;;;;;;;;;12.80;99.90;;;;;;5036869;28;19923;-93
2020/12/22 04:24:09;;;;;;;;;;;12.80;99.90;;;;;;5034444;28;19940;-94
2020/12/22 04:29:52;;;;;;;;;;;12.80;99.90;;;;;;5053201;28;19912;-95
2020/12/22 04:32:40;;;;;;;;;;;12.80;99.90;;;;;;5053422;28;20014;-94
2020/12/22 04:38:34;;;;;;;;;;;12.80;99.90;;;;;;5097520;28;19931;-93
2020/12/22 04:41:06;;;;;;;;;;;12.70;99.90;;;;;;5072096;28;20357;-94
2020/12/22 04:47:05;;;;;;;;;;;12.70;99.90;;;;;;5053743;28;19967;-94
2020/12/22 04:49:43;;;;;;;;;;;12.70;99.90;;;;;;5034440;28;19917;-95
2020/12/22 04:52:16;;;;;;;;;;;12.70;99.90;;;;;;5050044;28;19909;-93
2020/12/22 04:54:49;;;;;;;;;;;12.70;99.90;;;;;;5036561;28;19909;-91
2020/12/22 04:57:16;;;;;;;;;;;12.70;99.90;;;;;;5030777;28;20020;-90
2020/12/22 04:59:44;;;;;;;;;;;12.70;99.90;;;;;;5036434;28;19923;-89
2020/12/22 05:02:40;;;;;;;;;;;12.70;99.90;;;;;;5053190;28;19944;-94
2020/12/22 05:05:07;;;;;;;;;;;12.70;99.90;;;;;;5036266;28;19952;-93
2020/12/22 05:07:52;;;;;;;;;;;12.70;99.90;;;;;;5033118;28;19913;-92
2020/12/22 05:10:23;;;;;;;;;;;12.70;99.90;;;;;;5034271;28;20391;-90
2020/12/22 05:12:52;;;;;;;;;;;12.70;99.90;;;;;;5036063;28;20006;-93
2020/12/22 05:15:23;;;;;;;;;;;12.70;99.90;;;;;;5086126;28;20049;-91
2020/12/22 05:17:49;;;;;;;;;;;12.70;99.90;;;;;;5097347;28;19923;-93
2020/12/22 05:20:21;;;;;;;;;;;12.60;99.90;;;;;;5094310;28;19916;-92
2020/12/22 05:22:49;;;;;;;;;;;12.60;99.90;;;;;;5096387;28;19919;-90
2020/12/22 05:25:22;;;;;;;;;;;12.60;99.90;;;;;;5106947;28;20017;-90
2020/12/22 05:27:54;;;;;;;;;;;12.60;99.90;;;;;;5115858;28;19965;-90
2020/12/22 05:30:25;;;;;;;;;;;12.60;99.90;;;;;;5115334;28;20003;-90
2020/12/22 05:32:55;;;;;;;;;;;12.60;99.90;;;;;;5112908;28;19912;-91
2020/12/22 05:38:32;;;;;;;;;;;12.60;99.90;;;;;;5115216;28;19915;-90
2020/12/22 05:41:07;;;;;;;;;;;12.60;99.90;;;;;;5113872;28;19916;-91
2020/12/22 05:43:43;;;;;;;;;;;12.50;99.90;;;;;;5112233;28;20377;-92
2020/12/22 05:46:12;;;;;;;;;;;12.50;99.90;;;;;;5090729;28;20406;-92
2020/12/22 05:49:04;;;;;;;;;;;12.50;99.90;;;;;;5095091;28;19912;-92
2020/12/22 05:51:51;;;;;;;;;;;12.50;99.90;;;;;;5095820;28;19911;-91
2020/12/22 05:54:26;;;;;;;;;;;12.60;99.90;;;;;;5079642;28;19938;-91
2020/12/22 05:57:04;;;;;;;;;;;12.60;99.90;;;;;;5079333;28;19977;-91
2020/12/22 05:59:33;;;;;;;;;;;12.60;99.90;;;;;;5079724;28;19919;-89
2020/12/22 06:02:13;;;;;;;;;;;12.60;99.90;;;;;;5073338;28;19927;-90
2020/12/22 06:04:45;;;;;;;;;;;12.60;99.90;;;;;;5094121;28;19912;-90
2020/12/22 06:07:17;;;;;;;;;;;12.60;99.90;;;;;;5078924;28;19908;-89
2020/12/22 06:09:51;;;;;;;;;;;12.60;99.90;;;;;;5078814;28;19908;-89
2020/12/22 06:12:39;;;;;;;;;;;12.70;99.90;;;;;;5092849;28;19935;-89
2020/12/22 06:15:11;;;;;;;;;;;12.70;99.90;;;;;;5079404;28;20003;-90
2020/12/22 06:17:37;;;;;;;;;;;12.70;99.90;;;;;;5104665;28;19911;-90
2020/12/22 06:20:05;;;;;;;;;;;12.70;99.90;;;;;;5115702;28;19922;-89
2020/12/22 06:22:39;;;;;;;;;;;12.70;99.90;;;;;;5120350;28;19994;-89
2020/12/22 06:25:07;;;;;;;;;;;12.80;99.90;;;;;;5116767;28;19919;-90
2020/12/22 06:27:36;;;;;;;;;;;12.80;99.90;;;;;;5117209;28;20356;-90
2020/12/22 06:30:12;;;;;;;;;;;12.80;99.90;;;;;;5116451;28;19914;-89
2020/12/22 06:32:43;;;;;;;;;;;12.80;99.90;;;;;;5117448;28;19915;-89
2020/12/22 06:35:40;;;;;;;;;;;12.80;99.90;;;;;;5116403;28;19915;-89
2020/12/22 06:38:06;;;;;;;;;;;12.80;99.90;;;;;;5104012;28;19955;-90
2020/12/22 06:40:54;;;;;;;;;;;12.80;99.90;;;;;;5110364;28;20359;-90
2020/12/22 06:43:39;;;;;;;;;;;12.80;99.90;;;;;;5110278;28;19961;-88
2020/12/22 06:46:09;;;;;;;;;;;12.80;99.90;;;;;;5116695;28;19911;-89
2020/12/22 06:48:47;;;;;;;;;;;12.80;99.90;;;;;;5109937;28;19908;-89
2020/12/22 06:51:22;;;;;;;;;;;12.80;99.90;;;;;;5116138;28;19914;-89
2020/12/22 06:53:53;;;;;;;;;;;12.90;99.90;;;;;;5116184;28;19999;-89
2020/12/22 06:56:39;;;;;;;;;;;12.90;99.90;;;;;;5114073;28;19907;-90
2020/12/22 06:59:05;;;;;;;;;;;12.90;99.90;;;;;;5116297;28;19911;-88
2020/12/22 07:01:48;;;;;;;;;;;12.90;99.90;;;;;;5116091;28;19912;-87
2020/12/22 07:04:19;;;;;;;;;;;12.90;99.90;;;;;;5116058;28;19960;-88
2020/12/22 07:06:49;;;;;;;;;;;12.80;99.90;;;;;;5115807;28;19915;-89
2020/12/22 07:09:18;;;;;;;;;;;12.90;99.90;;;;;;5130820;27;19919;-88
2020/12/22 07:11:43;;;;;;;;;;;12.90;99.90;;;;;;5115619;28;19907;-89
2020/12/22 07:14:17;;;;;;;;;;;12.80;99.90;;;;;;5109672;28;19915;-89
2020/12/22 07:16:54;;;;;;;;;;;12.80;99.90;;;;;;5115059;28;19908;-89
2020/12/22 07:19:29;;;;;;;;;;;12.80;99.90;;;;;;5115934;28;19918;-89
2020/12/22 07:22:05;;;;;;;;;;;12.80;99.90;;;;;;5109360;28;19938;-88
2020/12/22 07:24:38;;;;;;;;;;;12.80;99.90;;;;;;5129610;27;19923;-88
2020/12/22 07:27:07;;;;;;;;;;;12.80;99.90;;;;;;5120489;27;19955;-88
2020/12/22 07:29:42;;;;;;;;;;;12.80;99.90;;;;;;5143220;27;19907;-90
2020/12/22 07:32:11;;;;;;;;;;;12.70;99.90;;;;;;5124864;27;19981;-88
2020/12/22 07:34:36;;;;;;;;;;;12.80;99.90;;;;;;5130694;27;19915;-88
2020/12/22 07:37:19;;;;;;;;;;;12.70;99.90;;;;;;5122863;27;20264;-88
2020/12/22 07:39:54;;;;;;;;;;;12.70;99.90;;;;;;5114203;27;19998;-89
2020/12/22 07:42:43;;;;;;;;;;;12.70;99.90;;;;;;5119452;27;20067;-91
2020/12/22 07:45:11;;;;;;;;;;;12.70;99.90;;;;;;5134444;27;19947;-88
2020/12/22 07:47:39;;;;;;;;;;;12.70;99.90;;;;;;5136922;27;19911;-89
2020/12/22 07:50:15;;;;;;;;;;;12.70;99.90;;;;;;5117931;27;19907;-89
2020/12/22 07:52:44;;;;;;;;;;;12.70;99.90;;;;;;5136664;27;19929;-89
2020/12/22 07:55:19;;;;;;;;;;;12.60;99.90;;;;;;5118507;27;19995;-89
2020/12/22 07:57:48;;;;;;;;;;;12.60;99.90;;;;;;5118637;27;19939;-90
2020/12/22 08:00:24;;;;;;;;;;;12.60;99.90;;;;;;5141951;27;19915;-90
2020/12/22 08:02:53;;;;;;;;;;;12.50;99.90;;;;;;5137091;27;19952;-90
2020/12/22 08:05:19;;;;;;;;;;;12.50;99.90;;;;;;5112110;27;19971;-89
2020/12/22 08:07:51;;;;;;;;;;;12.50;99.90;;;;;;5114461;27;19957;-89
2020/12/22 08:10:18;;;;;;;;;;;12.50;99.90;;;;;;5124233;27;19915;-89
2020/12/22 08:12:57;;;;;;;;;;;12.50;99.90;;;;;;5158219;27;19914;-90
2020/12/22 08:15:31;;;;;;;;;;;12.50;99.90;;;;;;5128788;27;19914;-89
2020/12/22 08:18:03;;;;;;;;;;;12.40;99.90;;;;;;5119178;27;19911;-88
2020/12/22 08:20:42;;;;;;;;;;;12.30;99.90;;;;;;5115392;27;19920;-88
2020/12/22 08:23:14;;;;;;;;;;;12.20;99.90;;;;;;5114796;27;19943;-87
2020/12/22 08:25:44;;;;;;;;;;;12.10;99.90;;;;;;5093064;28;19920;-89
2020/12/22 08:28:22;;;;;;;;;;;12.10;99.90;;;;;;5116324;28;19914;-89
2020/12/22 08:31:05;;;;;;;;;;;12.10;99.90;;;;;;4996780;28;19925;-86
2020/12/22 08:33:44;;;;;;;;;;;12.10;99.90;;;;;;5012634;28;19945;-87
2020/12/22 08:36:15;;;;;;;;;;;12.10;99.90;;;;;;5013011;28;20036;-90
2020/12/22 08:38:51;;;;;;;;;;;12.00;99.90;;;;;;4996993;28;20350;-87
2020/12/22 08:41:24;;;;;;;;;;;12.00;99.90;;;;;;5011587;28;19918;-87
2020/12/22 08:43:56;;;;;;;;;;;12.00;99.90;;;;;;5013572;28;20037;-88
2020/12/22 08:46:27;;;;;;;;;;;12.10;99.90;;;;;;5012744;28;20345;-88
2020/12/22 08:49:17;;;;;;;;;;;12.10;99.90;;;;;;5012358;28;19947;-88
2020/12/22 08:51:56;;;;;;;;;;;12.30;99.90;;;;;;5021379;28;19913;-88
2020/12/22 08:54:32;;;;;;;;;;;12.40;99.90;;;;;;5032089;28;19941;-87
2020/12/22 08:57:17;;;;;;;;;;;12.40;99.90;;;;;;5029908;28;19977;-86
2020/12/22 08:59:45;;;;;;;;;;;12.30;99.90;;;;;;5032796;28;20389;-89
2020/12/22 09:02:31;;;;;;;;;;;12.20;99.90;;;;;;5098802;28;19995;-89
2020/12/22 09:05:10;;;;;;;;;;;12.10;99.90;;;;;;5108336;28;19912;-89
2020/12/22 09:08:08;;;;;;;;;;;12.10;99.90;;;;;;5099317;28;19979;-90
2020/12/22 09:10:45;;;;;;;;;;;12.00;99.90;;;;;;5053040;28;20428;-91
2020/12/22 09:13:17;;;;;;;;;;;12.00;99.90;;;;;;5093400;28;20357;-88
2020/12/22 09:15:56;;;;;;;;;;;12.00;99.90;;;;;;5109526;28;19908;-90
2020/12/22 09:18:21;;;;;;;;;;;12.00;99.90;;;;;;5098374;28;20049;-87
2020/12/22 09:21:03;;;;;;;;;;;12.00;99.90;;;;;;5096345;28;20378;-87
2020/12/22 09:23:32;;;;;;;;;;;12.00;99.90;;;;;;5101426;27;19915;-87
2020/12/22 09:26:06;;;;;;;;;;;12.10;99.90;;;;;;5121086;27;19971;-87
2020/12/22 09:28:48;;;;;;;;;;;12.10;99.90;;;;;;5138139;27;19968;-87
2020/12/22 09:31:29;;;;;;;;;;;12.20;99.90;;;;;;5137761;27;20379;-88
2020/12/22 09:33:59;;;;;;;;;;;12.20;99.90;;;;;;5139528;27;19907;-88
2020/12/22 09:36:25;;;;;;;;;;;12.20;99.90;;;;;;5104288;27;19918;-89
2020/12/22 09:38:57;;;;;;;;;;;12.20;99.90;;;;;;5134648;27;20352;-89
2020/12/22 09:41:30;;;;;;;;;;;12.30;99.90;;;;;;5121176;27;19911;-88
2020/12/22 09:43:59;;;;;;;;;;;12.20;99.90;;;;;;5121217;27;19915;-88
2020/12/22 09:46:32;;;;;;;;;;;12.20;99.90;;;;;;5120819;27;19908;-88
2020/12/22 09:49:01;;;;;;;;;;;12.20;99.90;;;;;;5139241;27;19911;-89
2020/12/22 09:51:30;;;;;;;;;;;12.20;99.90;;;;;;5141928;27;19907;-88
2020/12/22 09:53:56;;;;;;;;;;;12.20;99.90;;;;;;5144545;27;20402;-90
2020/12/22 09:56:42;;;;;;;;;;;12.30;99.90;;;;;;5142337;27;19922;-91
2020/12/22 09:59:14;;;;;;;;;;;12.30;99.90;;;;;;5071525;28;20289;-91
2020/12/22 10:01:44;;;;;;;;;;;12.30;99.90;;;;;;5076188;28;19920;-93
2020/12/22 10:04:12;;;;;;;;;;;12.30;99.90;;;;;;5059422;28;19979;-90
2020/12/22 10:06:47;;;;;;;;;;;12.30;99.90;;;;;;5059981;28;19909;-90
2020/12/22 10:09:13;;;;;;;;;;;12.30;99.90;;;;;;5059484;28;19958;-90
2020/12/22 10:11:50;;;;;;;;;;;12.40;99.90;;;;;;5055153;28;19938;-89
2020/12/22 10:14:18;;;;;;;;;;;12.40;99.90;;;;;;5020013;28;19909;-90
2020/12/22 10:17:03;;;;;;;;;;;12.50;99.90;;;;;;5035853;28;19909;-88
2020/12/22 10:19:34;;;;;;;;;;;12.50;99.90;;;;;;5051223;28;19920;-89
2020/12/22 10:22:08;;;;;;;;;;;12.50;99.90;;;;;;5053303;28;20328;-89
2020/12/22 10:24:34;;;;;;;;;;;12.50;99.90;;;;;;5062307;28;19924;-91
2020/12/22 10:27:03;;;;;;;;;;;12.40;99.90;;;;;;5075534;28;19912;-90
2020/12/22 10:29:33;;;;;;;;;;;12.40;99.90;;;;;;5075308;28;19916;-88
2020/12/22 10:31:58;;;;;;;;;;;12.40;99.90;;;;;;5061301;28;19943;-90
2020/12/22 10:34:30;;;;;;;;;;;12.30;99.90;;;;;;5059058;28;19908;-91
2020/12/22 10:36:59;;;;;;;;;;;12.20;99.90;;;;;;5058896;28;20429;-91
2020/12/22 10:39:38;;;;;;;;;;;12.10;99.90;;;;;;5058724;28;19927;-91
2020/12/22 10:42:07;;;;;;;;;;;12.10;99.90;;;;;;5055919;28;19923;-89
2020/12/22 10:44:32;;;;;;;;;;;12.10;99.90;;;;;;5041434;28;19909;-91
2020/12/22 10:46:58;;;;;;;;;;;12.00;99.90;;;;;;5049401;28;19908;-92
2020/12/22 10:49:28;;;;;;;;;;;12.00;99.90;;;;;;5061749;28;20409;-90
2020/12/22 10:52:04;;;;;;;;;;;11.90;99.90;;;;;;5055042;28;19980;-89
2020/12/22 10:54:36;;;;;;;;;;;11.90;99.90;;;;;;5052935;28;19908;-90
2020/12/22 10:57:05;;;;;;;;;;;11.90;99.90;;;;;;5038783;28;20401;-90
2020/12/22 10:59:35;;;;;;;;;;;11.90;99.90;;;;;;5053847;28;19952;-90
2020/12/22 11:02:01;;;;;;;;;;;11.90;99.90;;;;;;5038864;28;19912;-90
2020/12/22 11:04:30;;;;;;;;;;;11.80;99.90;;;;;;5038278;28;19913;-89
2020/12/22 11:07:09;;;;;;;;;;;11.80;99.90;;;;;;5035887;28;20015;-90
2020/12/22 11:09:45;;;;;;;;;;;11.80;99.90;;;;;;5038186;28;19909;-91
2020/12/22 11:12:16;;;;;;;;;;;11.80;99.90;;;;;;5036076;28;19909;-90
2020/12/22 11:14:42;;;;;;;;;;;11.80;99.90;;;;;;5038316;28;19909;-90
2020/12/22 11:17:32;;;;;;;;;;;11.90;99.90;;;;;;5035226;28;19991;-90
2020/12/22 11:20:08;;;;;;;;;;;11.90;99.90;;;;;;5051345;28;19935;-91
2020/12/22 11:22:55;;;;;;;;;;;11.90;99.90;;;;;;5034120;28;19922;-91
2020/12/22 11:25:24;;;;;;;;;;;11.80;99.90;;;;;;5017675;28;19925;-91
2020/12/22 11:27:57;;;;;;;;;;;11.80;99.90;;;;;;5034567;28;19963;-88
2020/12/22 11:30:44;;;;;;;;;;;11.80;99.90;;;;;;5030673;28;19917;-90
2020/12/22 11:33:11;;;;;;;;;;;11.80;99.90;;;;;;4983287;28;19964;-90
2020/12/22 11:35:55;;;;;;;;;;;11.70;99.90;;;;;;4997157;28;19925;-89
2020/12/22 11:38:21;;;;;;;;;;;11.60;99.90;;;;;;4991514;28;19898;-90
2020/12/22 11:40:55;;;;;;;;;;;11.60;99.90;;;;;;4984949;28;19921;-91
2020/12/22 11:43:28;;;;;;;;;;;11.60;99.90;;;;;;4994988;28;19910;-91
2020/12/22 11:46:08;;;;;;;;;;;11.60;99.90;;;;;;4995356;28;19953;-90
2020/12/22 11:48:37;;;;;;;;;;;11.60;99.90;;;;;;4982257;28;20000;-90
2020/12/22 11:51:25;;;;;;;;;;;11.60;99.90;;;;;;5048313;28;19916;-90
2020/12/22 11:53:54;;;;;;;;;;;11.60;99.90;;;;;;5053720;28;19909;-92
2020/12/22 11:56:22;;;;;;;;;;;11.50;99.90;;;;;;5021518;28;19920;-91
2020/12/22 11:58:51;;;;;;;;;;;11.40;99.90;;;;;;5057157;28;20050;-91
2020/12/22 12:01:24;;;;;;;;;;;11.40;99.90;;;;;;5094462;28;20053;-90
2020/12/22 12:04:05;;;;;;;;;;;11.30;99.90;;;;;;5097748;28;19912;-91
2020/12/22 12:06:32;;;;;;;;;;;11.30;99.90;;;;;;5114660;28;19918;-91
2020/12/22 12:09:05;;;;;;;;;;;11.20;99.90;;;;;;5112137;28;19912;-91
2020/12/22 12:11:56;;;;;;;;;;;11.20;99.90;;;;;;5114967;28;19908;-90
2020/12/22 12:14:28;;;;;;;;;;;11.20;99.90;;;;;;5115884;28;19957;-91
2020/12/22 12:17:03;;;;;;;;;;;11.10;99.90;;;;;;5112125;28;19912;-91
2020/12/22 12:19:51;;;;;;;;;;;11.10;99.90;;;;;;5115389;28;19916;-91
2020/12/22 12:22:17;;;;;;;;;;;11.10;99.90;;;;;;5115434;28;19912;-90
2020/12/22 12:24:45;;;;;;;;;;;11.00;99.90;;;;;;5114118;27;20004;-91
2020/12/22 12:27:14;;;;;;;;;;;11.00;99.90;;;;;;5114745;27;19919;-91
2020/12/22 12:29:46;;;;;;;;;;;11.00;99.90;;;;;;5127598;27;19907;-89
2020/12/22 12:32:28;;;;;;;;;;;;;;;;;;;;;
2020/12/22 12:35:04;;;;;;;;;;;10.90;99.90;;;;;;5136148;27;19908;-90
2020/12/22 12:37:34;;;;;;;;;;;11.00;99.90;;;;;;5117705;27;19930;-90
2020/12/22 12:40:08;;;;;;;;;;;11.00;99.90;;;;;;5136432;27;19916;-91
2020/12/22 12:42:37;;;;;;;;;;;11.00;99.90;;;;;;5130499;27;20244;-90
2020/12/22 12:45:13;;;;;;;;;;;11.10;99.90;;;;;;5111553;28;19908;-92
2020/12/22 12:47:43;;;;;;;;;;;11.00;99.90;;;;;;5132939;27;19912;-90
2020/12/22 12:50:12;;;;;;;;;;;11.00;99.90;;;;;;5111408;28;20252;-91
2020/12/22 12:52:42;;;;;;;;;;;11.00;99.90;;;;;;5117855;27;19939;-90
2020/12/22 12:55:10;;;;;;;;;;;11.00;99.90;;;;;;5115132;28;20368;-91
2020/12/22 12:57:42;;;;;;;;;;;10.90;99.90;;;;;;5113500;28;19907;-90
2020/12/22 13:00:07;;;;;;;;;;;11.00;99.90;;;;;;5117628;28;19911;-91
2020/12/22 13:02:37;;;;;;;;;;;11.00;99.90;;;;;;5111236;28;20424;-91
2020/12/22 13:05:06;;;;;;;;;;;11.00;99.90;;;;;;5113979;28;19911;-91
2020/12/22 13:07:35;;;;;;;;;;;11.10;99.90;;;;;;5131950;28;19908;-90
2020/12/22 13:10:03;;;;;;;;;;;11.40;99.90;;;;;;5117743;28;19908;-90
2020/12/22 13:12:34;;;;;;;;;;;11.70;99.90;;;;;;5117517;28;19907;-90
2020/12/22 13:15:14;;;;;;;;;;;11.80;99.90;;;;;;5135973;28;20347;-91
2020/12/22 13:18:01;;;;;;;;;;;11.70;99.90;;;;;;5117205;28;19932;-91
2020/12/22 13:20:35;;;;;;;;;;;11.60;99.90;;;;;;5117566;28;19919;-91
2020/12/22 13:23:04;;;;;;;;;;;11.50;99.90;;;;;;5126186;28;19920;-92
2020/12/22 13:25:39;;;;;;;;;;;11.40;99.90;;;;;;5123842;28;20095;-92
2020/12/22 13:28:10;;;;;;;;;;;11.40;99.90;;;;;;5118141;28;19911;-89
2020/12/22 13:30:42;;;;;;;;;;;11.30;99.90;;;;;;5135889;28;19975;-90
2020/12/22 13:33:11;;;;;;;;;;;11.30;99.90;;;;;;5135936;28;19956;-90
2020/12/22 13:35:40;;;;;;;;;;;11.30;99.90;;;;;;5115547;28;20263;-91
2020/12/22 13:38:08;;;;;;;;;;;11.20;99.90;;;;;;5117127;28;20348;-89
2020/12/22 13:40:38;;;;;;;;;;;11.20;99.90;;;;;;5111610;28;20376;-91
2020/12/22 13:43:07;;;;;;;;;;;11.10;99.90;;;;;;5130849;28;19908;-91
2020/12/22 13:45:42;;;;;;;;;;;11.10;99.90;;;;;;5114805;28;19951;-91
2020/12/22 13:48:14;;;;;;;;;;;11.00;99.90;;;;;;5120695;28;20014;-91
2020/12/22 13:50:47;;;;;;;;;;;11.00;99.90;;;;;;5117502;28;19914;-91
2020/12/22 13:53:33;;;;;;;;;;;10.90;99.90;;;;;;5134858;28;19908;-93
2020/12/22 13:56:02;;;;;;;;;;;10.90;99.90;;;;;;5116219;28;20352;-92
2020/12/22 13:58:31;;;;;;;;;;;10.80;99.90;;;;;;5117502;28;19912;-91
2020/12/22 14:01:03;;;;;;;;;;;10.80;99.90;;;;;;5117428;28;19973;-91
2020/12/22 14:03:35;;;;;;;;;;;10.80;99.90;;;;;;5113429;28;20360;-90
2020/12/22 14:06:04;;;;;;;;;;;10.80;99.90;;;;;;5115494;27;19907;-91
2020/12/22 14:08:41;;;;;;;;;;;10.90;99.90;;;;;;5073529;28;20011;-91
2020/12/22 14:11:09;;;;;;;;;;;10.90;99.90;;;;;;5042599;28;19977;-91
2020/12/22 14:13:35;;;;;;;;;;;10.90;99.90;;;;;;5069986;28;20001;-90
2020/12/22 14:16:14;;;;;;;;;;;10.90;99.90;;;;;;5054611;28;19909;-91
2020/12/22 14:18:41;;;;;;;;;;;10.90;99.90;;;;;;5059139;28;19908;-91
2020/12/22 14:21:37;;;;;;;;;;;10.90;99.90;;;;;;5059087;28;19917;-92
2020/12/22 14:24:14;;;;;;;;;;;10.90;99.90;;;;;;5058897;28;20004;-91
2020/12/22 14:27:12;;;;;;;;;;;10.90;99.90;;;;;;5058739;28;19920;-90
2020/12/22 14:30:00;;;;;;;;;;;10.80;99.90;;;;;;5076012;28;20069;-91
2020/12/22 14:32:48;;;;;;;;;;;10.80;99.90;;;;;;5036191;28;20329;-91
2020/12/22 14:35:46;;;;;;;;;;;10.80;99.90;;;;;;5036025;28;19909;-91
2020/12/22 14:38:14;;;;;;;;;;;10.80;99.90;;;;;;5035495;28;20366;-91
2020/12/22 14:41:00;;;;;;;;;;;10.80;99.90;;;;;;5007758;28;19981;-91
2020/12/22 14:43:31;;;;;;;;;;;10.70;99.90;;;;;;5035629;28;20306;-91
2020/12/22 14:46:05;;;;;;;;;;;10.80;99.90;;;;;;5061047;28;19920;-91
2020/12/22 14:48:37;;;;;;;;;;;10.70;99.90;;;;;;5076288;28;20007;-91
2020/12/22 14:51:16;;;;;;;;;;;10.70;99.90;;;;;;5072982;28;19912;-90
2020/12/22 14:53:58;;;;;;;;;;;10.70;99.90;;;;;;5074065;28;19909;-91
2020/12/22 14:56:35;;;;;;;;;;;10.70;99.90;;;;;;5075003;28;19909;-91
2020/12/22 14:59:04;;;;;;;;;;;10.70;99.90;;;;;;5058322;28;20355;-91
2020/12/22 15:01:29;;;;;;;;;;;10.60;99.90;;;;;;5075136;28;19948;-90
2020/12/22 15:03:58;;;;;;;;;;;10.60;99.90;;;;;;5078471;28;20272;-92
2020/12/22 15:06:23;;;;;;;;;;;10.60;99.90;;;;;;5094397;28;20388;-92
2020/12/22 15:09:18;;;;;;;;;;;10.60;99.90;;;;;;5108339;28;19924;-91
2020/12/22 15:11:53;;;;;;;;;;;10.60;99.90;;;;;;5116612;28;19938;-91
2020/12/22 15:14:40;;;;;;;;;;;10.60;99.90;;;;;;5092193;28;19917;-91